Time;durP1;ratioP1;P1;durP2;ratioP2;P2;SDS_P1;SDS_P2;PMS_P1;PMS_P2;Temp;Humidity;BMP_temperature;BMP_pressure;BME280_temperature;BME280_humidity;BME280_pressure;Samples;Min_cycle;Max_cycle;Signal;HPM_P1;HPM_P2
2021/12/07 00:02:02;;;;;;;10.68;7.30;;;1.20;99.90;;;;;;4887124;29;20119;-93
2021/12/07 00:04:33;;;;;;;11.40;7.30;;;1.20;99.90;;;;;;4880555;29;20040;-92
2021/12/07 00:07:00;;;;;;;10.93;6.93;;;1.20;99.90;;;;;;4885517;29;20037;-92
2021/12/07 00:09:26;;;;;;;10.48;6.85;;;1.20;99.90;;;;;;4885338;29;20040;-93
2021/12/07 00:11:52;;;;;;;9.75;6.45;;;1.20;99.90;;;;;;4883534;29;20093;-91
2021/12/07 00:14:24;;;;;;;10.18;6.75;;;1.30;99.90;;;;;;4877981;29;20093;-88
2021/12/07 00:16:53;;;;;;;9.40;5.95;;;1.20;99.90;;;;;;4882821;29;20029;-92
2021/12/07 00:19:22;;;;;;;10.30;6.65;;;1.20;99.90;;;;;;4896027;29;20479;-94
2021/12/07 00:21:48;;;;;;;11.30;7.50;;;1.30;99.90;;;;;;4875869;29;20077;-92
2021/12/07 00:24:14;;;;;;;10.38;7.15;;;1.30;99.90;;;;;;4882814;29;20021;-92
2021/12/07 00:26:42;;;;;;;9.88;6.70;;;1.30;99.90;;;;;;4883425;29;20029;-92
2021/12/07 00:29:09;;;;;;;9.98;6.78;;;1.30;99.90;;;;;;4883929;29;20029;-93
2021/12/07 00:31:41;;;;;;;10.02;6.75;;;1.30;99.90;;;;;;4882909;29;20043;-93
2021/12/07 00:34:24;;;;;;;9.63;6.40;;;1.30;99.90;;;;;;4882340;29;20063;-91
2021/12/07 00:36:51;;;;;;;9.65;6.55;;;1.30;99.90;;;;;;4879028;29;20033;-91
2021/12/07 00:39:22;;;;;;;9.05;6.15;;;1.30;99.90;;;;;;4882916;29;20061;-91
2021/12/07 00:41:50;;;;;;;9.45;5.93;;;1.30;99.90;;;;;;4882293;29;20052;-90
2021/12/07 00:44:17;;;;;;;9.73;6.15;;;1.30;99.90;;;;;;4881818;29;20060;-92
2021/12/07 00:46:44;;;;;;;11.90;7.63;;;1.30;99.90;;;;;;4882353;29;20044;-92
2021/12/07 00:49:10;;;;;;;10.65;6.82;;;1.30;99.90;;;;;;4881596;29;20025;-91
2021/12/07 00:51:36;;;;;;;10.00;6.20;;;1.30;99.90;;;;;;4881662;29;20021;-93
2021/12/07 00:54:02;;;;;;;11.02;6.95;;;1.30;99.90;;;;;;4882687;29;20045;-92
2021/12/07 00:56:28;;;;;;;10.52;6.85;;;1.30;99.90;;;;;;4883402;29;20064;-91
2021/12/07 00:58:54;;;;;;;11.32;7.70;;;1.40;99.90;;;;;;4867449;29;20029;-93
2021/12/07 01:01:20;;;;;;;10.75;7.10;;;1.30;99.90;;;;;;4884353;29;20048;-93
2021/12/07 01:03:49;;;;;;;11.00;7.05;;;1.40;99.90;;;;;;4876695;29;20190;-91
2021/12/07 01:06:32;;;;;;;10.23;6.65;;;1.40;99.90;;;;;;4882573;29;20021;-92
2021/12/07 01:25:54;;;;;;;12.40;8.35;;;1.30;99.90;;;;;;4894447;29;20057;-93
2021/12/07 01:28:35;;;;;;;12.77;8.77;;;1.30;99.90;;;;;;4904886;29;20045;-94
2021/12/07 01:31:18;;;;;;;11.35;8.07;;;1.30;99.90;;;;;;4905053;29;20010;-94
2021/12/07 01:52:48;;;;;;;17.05;11.95;;;1.30;99.90;;;;;;4853058;29;20040;-93
2021/12/07 01:59:32;;;;;;;16.40;11.20;;;1.20;99.90;;;;;;4872547;29;20040;-94
2021/12/07 02:00:59;;;;;;;16.58;11.52;;;1.20;99.90;;;;;;4871431;29;20025;-95
2021/12/07 02:03:30;;;;;;;16.40;11.25;;;1.20;99.90;;;;;;4865641;29;20018;-94
2021/12/07 02:05:56;;;;;;;15.65;10.70;;;1.30;99.90;;;;;;4871337;29;20009;-92
2021/12/07 02:08:45;;;;;;;15.65;11.07;;;1.30;99.90;;;;;;4882278;29;20020;-93
2021/12/07 02:11:14;;;;;;;16.13;11.95;;;1.30;99.90;;;;;;4880261;29;20089;-94
2021/12/07 02:16:13;;;;;;;18.63;13.15;;;1.30;99.90;;;;;;4881195;29;20049;-94
2021/12/07 02:18:47;;;;;;;18.92;12.88;;;1.20;99.90;;;;;;4881670;29;20033;-91
2021/12/07 02:21:14;;;;;;;19.48;13.18;;;1.20;99.90;;;;;;4880680;29;20041;-91
2021/12/07 02:23:43;;;;;;;17.40;12.30;;;1.20;99.90;;;;;;4875531;29;20029;-95
2021/12/07 02:26:16;;;;;;;16.75;11.80;;;1.20;99.90;;;;;;4858711;29;20045;-93
2021/12/07 02:28:54;;;;;;;16.35;12.15;;;1.20;99.90;;;;;;4872168;29;20116;-94
2021/12/07 02:31:26;;;;;;;18.77;13.10;;;1.20;99.90;;;;;;4868234;29;20029;-96
2021/12/07 02:33:54;;;;;;;17.88;12.23;;;1.10;99.90;;;;;;4854623;29;20040;-94
2021/12/07 02:36:21;;;;;;;16.27;11.02;;;1.10;99.90;;;;;;4870996;29;20038;-92
2021/12/07 02:38:48;;;;;;;16.30;11.70;;;1.10;99.90;;;;;;4870920;29;20029;-93
2021/12/07 02:41:14;;;;;;;16.33;11.15;;;1.10;99.90;;;;;;4871317;29;20038;-94
2021/12/07 02:43:40;;;;;;;15.60;10.82;;;1.10;99.90;;;;;;4874380;29;20026;-93
2021/12/07 02:46:05;;;;;;;14.63;10.52;;;1.00;99.90;;;;;;4868942;29;20053;-95
2021/12/07 02:48:31;;;;;;;16.30;11.10;;;1.10;99.90;;;;;;4868594;29;20058;-94
2021/12/07 02:50:58;;;;;;;15.60;10.38;;;1.10;99.90;;;;;;4868679;29;20029;-94
2021/12/07 02:53:26;;;;;;;14.10;9.82;;;1.00;99.90;;;;;;4868329;29;20030;-94
2021/12/07 02:55:57;;;;;;;13.45;9.25;;;1.00;99.90;;;;;;4869834;29;20503;-94
2021/12/07 02:58:23;;;;;;;14.57;10.02;;;1.00;99.90;;;;;;4871015;29;20040;-93
2021/12/07 03:01:00;;;;;;;15.82;10.27;;;1.00;99.90;;;;;;4874308;29;20148;-96
2021/12/07 03:03:34;;;;;;;15.38;10.27;;;1.00;99.90;;;;;;4877995;29;20022;-94
2021/12/07 03:06:13;;;;;;;12.85;8.55;;;0.90;99.90;;;;;;4881577;29;20045;-93
2021/12/07 03:09:32;;;;;;;14.70;9.00;;;1.00;99.90;;;;;;4881727;29;20025;-95
2021/12/07 03:28:10;;;;;;;22.27;14.07;;;1.20;99.90;;;;;;4847168;29;20041;-94
2021/12/07 03:30:36;;;;;;;20.98;12.90;;;1.30;99.90;;;;;;4851003;29;20033;-93
2021/12/07 03:33:03;;;;;;;20.92;14.35;;;1.30;99.90;;;;;;4852416;29;20022;-92
2021/12/07 03:35:29;;;;;;;21.42;14.25;;;1.30;99.90;;;;;;4855026;29;20034;-92
2021/12/07 03:37:55;;;;;;;20.48;13.80;;;1.30;99.90;;;;;;4852185;29;20030;-92
2021/12/07 03:40:21;;;;;;;20.70;13.15;;;1.30;99.90;;;;;;4833917;29;20041;-91
2021/12/07 03:42:47;;;;;;;19.58;12.65;;;1.30;99.90;;;;;;4846759;29;20295;-91
2021/12/07 03:45:13;;;;;;;19.33;12.05;;;1.20;99.90;;;;;;4847430;29;20037;-91
2021/12/07 03:47:39;;;;;;;22.73;14.30;;;1.20;99.90;;;;;;4850563;29;20026;-92
2021/12/07 03:50:07;;;;;;;21.30;12.63;;;1.30;99.90;;;;;;4868755;29;20044;-91
2021/12/07 03:52:33;;;;;;;21.92;13.32;;;1.30;99.90;;;;;;4868806;29;20032;-92
2021/12/07 03:54:59;;;;;;;19.23;12.23;;;1.30;99.90;;;;;;4868542;29;20053;-93
2021/12/07 03:57:24;;;;;;;18.17;11.38;;;1.30;99.90;;;;;;4868519;29;20428;-91
2021/12/07 03:59:50;;;;;;;18.20;10.60;;;1.30;99.90;;;;;;4867163;29;20125;-90
2021/12/07 04:02:16;;;;;;;17.63;11.25;;;1.30;99.90;;;;;;4868691;29;20018;-91
2021/12/07 04:04:42;;;;;;;23.92;13.20;;;1.40;99.90;;;;;;4869066;29;20494;-91
2021/12/07 04:07:08;;;;;;;24.77;12.75;;;1.50;99.90;;;;;;4868951;29;20029;-91
2021/12/07 04:09:33;;;;;;;21.40;11.55;;;1.60;99.90;;;;;;4867806;29;20392;-91
2021/12/07 04:11:59;;;;;;;25.90;11.80;;;1.70;99.90;;;;;;4867045;29;20044;-91
2021/12/07 04:14:26;;;;;;;22.13;11.00;;;1.80;99.90;;;;;;4868173;29;20096;-92
2021/12/07 04:16:53;;;;;;;17.65;9.65;;;1.90;99.90;;;;;;4868080;29;20025;-91
2021/12/07 04:19:18;;;;;;;17.52;8.63;;;2.00;99.90;;;;;;4868303;29;20422;-92
2021/12/07 04:21:44;;;;;;;16.90;8.43;;;2.00;99.90;;;;;;4868837;29;20105;-91
2021/12/07 04:24:10;;;;;;;14.00;7.28;;;2.00;99.90;;;;;;4869173;29;20039;-90
2021/12/07 04:26:37;;;;;;;19.70;8.65;;;2.10;99.90;;;;;;4868954;29;20117;-92
2021/12/07 04:29:03;;;;;;;15.75;7.47;;;2.10;99.90;;;;;;4869757;29;20012;-92
2021/12/07 04:31:29;;;;;;;18.83;6.93;;;2.20;99.90;;;;;;4869852;29;20029;-93
2021/12/07 04:33:55;;;;;;;16.42;6.68;;;2.20;99.90;;;;;;4867954;29;20033;-92
2021/12/07 04:36:20;;;;;;;12.68;6.60;;;2.20;99.90;;;;;;4868235;29;20044;-92
2021/12/07 04:38:46;;;;;;;15.57;6.90;;;2.20;99.90;;;;;;4868331;29;20037;-92
2021/12/07 04:41:12;;;;;;;14.48;6.93;;;2.20;99.90;;;;;;4868507;29;20060;-92
2021/12/07 04:43:38;;;;;;;14.73;6.60;;;2.20;99.90;;;;;;4868596;29;20112;-91
2021/12/07 04:59:33;;;;;;;9.20;4.65;;;2.30;99.90;;;;;;4885600;29;20040;-91
2021/12/07 05:01:59;;;;;;;11.23;5.10;;;2.30;99.90;;;;;;4869353;29;20061;-90
2021/12/07 05:04:29;;;;;;;11.73;4.47;;;2.20;99.90;;;;;;4868889;29;20073;-91
2021/12/07 05:07:03;;;;;;;9.30;4.15;;;2.20;99.90;;;;;;4868721;29;20029;-90
2021/12/07 05:12:26;;;;;;;6.57;3.22;;;2.00;99.90;;;;;;4865589;29;20036;-91
2021/12/07 05:15:00;;;;;;;10.85;4.55;;;2.00;99.90;;;;;;4868534;29;20033;-91
2021/12/07 05:18:00;;;;;;;10.20;3.97;;;1.90;99.90;;;;;;4869212;29;20061;-91
2021/12/07 05:34:31;;;;;;;8.43;3.83;;;1.90;99.90;;;;;;4862841;29;20043;-91
2021/12/07 05:39:45;;;;;;;22.33;9.90;;;2.00;99.90;;;;;;4863121;29;20468;-90
2021/12/07 05:42:12;;;;;;;21.08;10.38;;;2.00;99.90;;;;;;4847387;29;20018;-90
2021/12/07 05:44:38;;;;;;;24.92;11.45;;;1.90;99.90;;;;;;4847497;29;20481;-91
2021/12/07 05:47:04;;;;;;;18.17;9.95;;;1.90;99.90;;;;;;4847234;29;20090;-89
2021/12/07 05:49:30;;;;;;;20.40;8.98;;;1.90;99.90;;;;;;4847519;29;20110;-90
2021/12/07 05:51:56;;;;;;;21.17;10.00;;;1.80;99.90;;;;;;4860876;29;20045;-90
2021/12/07 05:54:22;;;;;;;18.17;8.48;;;1.90;99.90;;;;;;4865690;29;20039;-91
2021/12/07 05:57:10;;;;;;;17.35;8.90;;;1.80;99.90;;;;;;4865538;29;20493;-91
2021/12/07 05:59:36;;;;;;;16.17;8.63;;;1.80;99.90;;;;;;4866346;29;20025;-91
2021/12/07 06:02:02;;;;;;;15.55;7.88;;;1.70;99.90;;;;;;4863789;29;20040;-90
2021/12/07 06:04:30;;;;;;;15.00;6.70;;;1.70;99.90;;;;;;4864878;29;20064;-90
2021/12/07 06:06:57;;;;;;;13.95;6.28;;;1.70;99.90;;;;;;4867754;29;20053;-91
2021/12/07 06:09:24;;;;;;;12.15;5.72;;;1.80;99.90;;;;;;4867924;29;20053;-91
2021/12/07 06:11:50;;;;;;;12.57;5.70;;;1.70;99.90;;;;;;4867758;29;20076;-90
2021/12/07 06:14:19;;;;;;;11.98;5.20;;;1.70;99.90;;;;;;4869450;29;20066;-93
2021/12/07 06:16:46;;;;;;;8.38;4.65;;;1.70;99.90;;;;;;4870166;29;20029;-89
2021/12/07 06:19:12;;;;;;;9.82;5.05;;;1.60;99.90;;;;;;4868227;29;20498;-89
2021/12/07 06:21:37;;;;;;;10.35;4.70;;;1.60;99.90;;;;;;4873805;29;20029;-90
2021/12/07 06:24:03;;;;;;;8.52;4.45;;;1.60;99.90;;;;;;4869144;29;20061;-89
2021/12/07 06:26:29;;;;;;;8.75;4.45;;;1.70;99.90;;;;;;4879630;29;20043;-92
2021/12/07 06:28:54;;;;;;;10.32;4.97;;;1.70;99.90;;;;;;4871250;29;20029;-91
2021/12/07 06:31:23;;;;;;;8.20;4.78;;;1.70;99.90;;;;;;4877653;29;20439;-91
2021/12/07 06:33:48;;;;;;;9.48;4.10;;;1.70;99.90;;;;;;4882017;29;20028;-91
2021/12/07 06:36:15;;;;;;;10.98;4.10;;;1.80;99.90;;;;;;4869182;29;20040;-91
2021/12/07 06:38:41;;;;;;;10.00;3.83;;;1.80;99.90;;;;;;4869992;29;20017;-90
2021/12/07 06:41:09;;;;;;;9.95;3.90;;;1.80;99.90;;;;;;4873804;29;20430;-91
2021/12/07 06:43:35;;;;;;;9.68;3.80;;;1.80;99.90;;;;;;4871270;29;20017;-92
2021/12/07 06:46:00;;;;;;;6.20;3.25;;;1.70;99.90;;;;;;4870959;29;20120;-91
2021/12/07 06:48:26;;;;;;;8.48;3.42;;;1.70;99.90;;;;;;4870648;29;20067;-93
2021/12/07 06:50:52;;;;;;;9.10;4.57;;;1.80;99.90;;;;;;4870439;29;20117;-93
2021/12/07 06:53:23;;;;;;;8.18;3.88;;;1.80;99.90;;;;;;4871267;29;20025;-93
2021/12/07 06:55:49;;;;;;;8.15;3.10;;;1.80;99.90;;;;;;4870391;29;20037;-92
2021/12/07 06:58:15;;;;;;;8.40;3.15;;;1.90;99.90;;;;;;4887016;29;20037;-92
2021/12/07 07:00:41;;;;;;;8.88;3.17;;;1.80;99.90;;;;;;4884102;29;20049;-93
2021/12/07 07:03:08;;;;;;;4.63;2.80;;;1.70;99.90;;;;;;4869071;29;20028;-92
2021/12/07 07:05:34;;;;;;;6.85;2.50;;;1.60;99.90;;;;;;4869963;29;20571;-95
2021/12/07 07:08:03;;;;;;;4.53;2.53;;;1.50;99.90;;;;;;4881467;29;20070;-92
2021/12/07 07:10:28;;;;;;;6.18;2.17;;;1.40;99.90;;;;;;4872257;29;20044;-92
2021/12/07 07:12:54;;;;;;;3.10;1.85;;;1.40;99.90;;;;;;4870139;29;20025;-92
2021/12/07 07:15:20;;;;;;;4.75;2.00;;;1.30;99.90;;;;;;4870855;29;20037;-94
2021/12/07 07:17:45;;;;;;;5.43;2.22;;;1.20;99.90;;;;;;4871032;29;20101;-92
2021/12/07 07:20:14;;;;;;;5.97;2.60;;;1.10;99.90;;;;;;4872574;29;20064;-93
2021/12/07 07:22:40;;;;;;;5.65;2.20;;;1.10;99.90;;;;;;4873315;29;20021;-92
2021/12/07 07:25:07;;;;;;;5.03;2.45;;;1.10;99.90;;;;;;4870544;29;20029;-94
2021/12/07 07:27:33;;;;;;;4.60;2.22;;;1.00;99.90;;;;;;4882188;29;20028;-94
2021/12/07 07:29:58;;;;;;;6.60;2.95;;;1.00;99.90;;;;;;4886816;29;20028;-91
2021/12/07 07:32:24;;;;;;;3.72;1.85;;;1.00;99.90;;;;;;4871128;29;20044;-90
2021/12/07 07:34:50;;;;;;;4.30;2.30;;;0.90;99.90;;;;;;4869798;29;20045;-92
2021/12/07 07:37:16;;;;;;;3.63;1.98;;;0.90;99.90;;;;;;4869991;29;20025;-92
2021/12/07 07:39:42;;;;;;;4.75;2.13;;;0.90;99.90;;;;;;4870680;29;20025;-93
2021/12/07 07:42:08;;;;;;;3.88;1.90;;;0.90;99.90;;;;;;4870603;29;20120;-93
2021/12/07 07:44:34;;;;;;;4.35;2.30;;;0.90;99.90;;;;;;4871159;29;20044;-93
2021/12/07 07:47:00;;;;;;;6.35;2.42;;;0.90;99.90;;;;;;4879518;29;20029;-92
2021/12/07 07:49:26;;;;;;;4.45;2.55;;;0.90;99.90;;;;;;4889363;29;20053;-91
2021/12/07 07:51:54;;;;;;;7.43;2.90;;;1.00;99.90;;;;;;4885318;29;20029;-92
2021/12/07 07:54:20;;;;;;;4.15;2.55;;;1.00;99.90;;;;;;4871349;29;20021;-92
2021/12/07 07:56:46;;;;;;;5.50;2.90;;;1.00;99.90;;;;;;4876511;29;20021;-91
2021/12/07 07:59:11;;;;;;;10.15;3.28;;;1.10;99.90;;;;;;4889767;29;20103;-95
2021/12/07 08:01:37;;;;;;;6.97;2.80;;;1.10;99.90;;;;;;4875507;29;20060;-92
2021/12/07 08:04:04;;;;;;;7.38;2.88;;;1.20;99.90;;;;;;4855726;29;20025;-93
2021/12/07 08:06:30;;;;;;;5.85;3.33;;;1.20;99.90;;;;;;4873026;29;20045;-93
2021/12/07 08:08:57;;;;;;;9.88;3.80;;;1.30;99.90;;;;;;4882925;29;20057;-92
2021/12/07 08:11:24;;;;;;;10.40;4.57;;;1.30;99.90;;;;;;4873392;29;20051;-93
2021/12/07 08:13:52;;;;;;;17.13;4.18;;;1.50;99.90;;;;;;4871360;29;20033;-93
2021/12/07 08:16:24;;;;;;;11.25;4.90;;;1.60;99.90;;;;;;4869740;29;20037;-91
2021/12/07 08:18:53;;;;;;;13.75;5.47;;;1.70;99.90;;;;;;4870976;29;20028;-93
2021/12/07 08:21:20;;;;;;;12.20;4.90;;;1.80;99.90;;;;;;4887790;29;20029;-92
2021/12/07 08:23:52;;;;;;;10.38;4.70;;;1.80;99.90;;;;;;4876864;29;20036;-92
2021/12/07 08:26:23;;;;;;;12.27;4.85;;;2.00;99.90;;;;;;4880619;29;20033;-92
2021/12/07 08:28:53;;;;;;;11.35;5.05;;;2.00;99.90;;;;;;4878430;29;20033;-92
2021/12/07 08:31:19;;;;;;;10.60;4.63;;;2.10;99.90;;;;;;4881009;29;20056;-92
2021/12/07 08:33:45;;;;;;;11.88;4.88;;;2.10;99.90;;;;;;4883878;29;20017;-93
2021/12/07 08:36:11;;;;;;;11.70;5.95;;;2.10;99.90;;;;;;4878785;29;20045;-93
2021/12/07 08:38:36;;;;;;;12.70;5.55;;;2.20;99.90;;;;;;4871325;29;20368;-92
2021/12/07 08:41:02;;;;;;;14.88;5.40;;;2.20;99.90;;;;;;4899397;29;20035;-90
2021/12/07 08:43:30;;;;;;;12.60;5.70;;;2.30;99.90;;;;;;4897949;29;20033;-91
2021/12/07 08:45:58;;;;;;;9.80;4.55;;;2.30;99.90;;;;;;4905766;29;20024;-90
2021/12/07 08:48:24;;;;;;;9.73;5.45;;;2.30;99.90;;;;;;4905408;29;20029;-94
2021/12/07 08:50:51;;;;;;;15.20;6.00;;;2.40;99.90;;;;;;4906724;29;20023;-92
2021/12/07 08:53:20;;;;;;;16.20;7.40;;;2.40;99.90;;;;;;4906912;29;20028;-90
2021/12/07 09:01:26;;;;;;;19.30;7.28;;;3.40;99.90;;;;;;4909347;29;20088;-91
2021/12/07 09:03:58;;;;;;;13.10;6.35;;;4.30;99.90;;;;;;4887803;29;20033;-93
2021/12/07 09:06:30;;;;;;;10.80;5.82;;;5.10;99.90;;;;;;4887568;29;20021;-92
2021/12/07 09:08:56;;;;;;;12.00;5.28;;;5.90;99.90;;;;;;4887484;29;20017;-93
2021/12/07 09:11:26;;;;;;;10.27;4.60;;;6.60;99.90;;;;;;4887489;29;20013;-92
2021/12/07 09:13:54;;;;;;;14.35;5.85;;;7.20;99.90;;;;;;4886071;29;20017;-94
2021/12/07 09:16:21;;;;;;;12.88;4.68;;;7.60;99.90;;;;;;4922117;24;20065;-90
2021/12/07 09:18:47;;;;;;;9.15;4.40;;;7.60;99.90;;;;;;4901349;29;20033;-90
2021/12/07 09:21:15;;;;;;;9.75;4.43;;;7.10;99.90;;;;;;4901673;29;20061;-93
2021/12/07 09:23:41;;;;;;;10.45;4.93;;;6.90;99.90;;;;;;4901047;29;20025;-94
2021/12/07 09:26:26;;;;;;;;;;;;;;;;;;;;;
2021/12/07 09:28:52;;;;;;;11.30;5.05;;;6.40;99.90;;;;;;4887958;29;20123;-90
2021/12/07 09:31:19;;;;;;;11.98;5.22;;;6.50;99.90;;;;;;4885134;29;20071;-93
2021/12/07 09:33:45;;;;;;;13.05;5.75;;;7.10;99.90;;;;;;4886221;29;20092;-93
2021/12/07 09:36:13;;;;;;;13.45;5.20;;;7.60;99.90;;;;;;4884047;29;20507;-92
2021/12/07 09:38:40;;;;;;;16.30;6.22;;;8.10;99.90;;;;;;4884333;29;20050;-93
2021/12/07 09:41:07;;;;;;;15.68;6.18;;;8.50;99.90;;;;;;4887527;29;20089;-94
2021/12/07 09:43:33;;;;;;;14.60;5.75;;;8.80;99.90;;;;;;4889143;29;20033;-94
2021/12/07 09:45:59;;;;;;;15.57;5.32;;;9.10;99.90;;;;;;4888353;29;20037;-94
2021/12/07 09:48:25;;;;;;;15.45;6.28;;;9.30;99.90;;;;;;4887642;29;20379;-93
2021/12/07 09:50:53;;;;;;;19.27;6.25;;;9.20;99.90;;;;;;4888122;29;20021;-93
2021/12/07 09:53:22;;;;;;;16.70;7.20;;;9.10;99.90;;;;;;4887649;29;20041;-93
2021/12/07 09:55:51;;;;;;;14.40;5.50;;;8.90;99.90;;;;;;4886817;29;20045;-91
2021/12/07 09:58:18;;;;;;;14.10;6.10;;;8.70;99.90;;;;;;4887016;29;20032;-90
2021/12/07 10:00:48;;;;;;;10.75;4.95;;;9.00;99.90;;;;;;4886166;29;20122;-91
2021/12/07 10:03:16;;;;;;;12.23;5.35;;;9.50;99.90;;;;;;4887141;29;20033;-91
2021/12/07 10:05:44;;;;;;;10.32;5.57;;;9.90;99.90;;;;;;4886520;29;20025;-92
2021/12/07 10:08:11;;;;;;;15.88;5.50;;;10.00;99.90;;;;;;4886272;29;20112;-92
2021/12/07 10:10:41;;;;;;;13.48;5.38;;;10.20;99.90;;;;;;4885772;29;20021;-91
2021/12/07 10:13:09;;;;;;;9.30;4.47;;;10.50;99.90;;;;;;4886752;29;20073;-91
2021/12/07 10:15:36;;;;;;;13.30;5.30;;;10.70;99.90;;;;;;4888325;29;20049;-92
2021/12/07 10:18:20;;;;;;;9.55;4.22;;;11.10;99.90;;;;;;4887123;29;20037;-94
2021/12/07 10:20:59;;;;;;;12.65;4.30;;;11.40;99.90;;;;;;4881596;29;20032;-90
2021/12/07 10:23:53;;;;;;;11.73;4.50;;;11.70;99.90;;;;;;4885100;29;20105;-90
2021/12/07 10:26:24;;;;;;;11.50;4.75;;;12.10;99.90;;;;;;4868946;29;20353;-90
2021/12/07 10:29:14;;;;;;;14.40;4.90;;;12.30;99.90;;;;;;4877212;29;20029;-89
2021/12/07 10:31:43;;;;;;;10.85;4.05;;;12.50;99.90;;;;;;4887504;29;20120;-91
2021/12/07 10:34:14;;;;;;;12.48;4.18;;;12.60;99.90;;;;;;4886463;29;20031;-91
2021/12/07 10:36:55;;;;;;;12.65;4.50;;;12.80;99.90;;;;;;4886974;29;20495;-91
2021/12/07 10:39:29;;;;;;;15.52;5.15;;;12.80;99.90;;;;;;4885712;29;20017;-90
2021/12/07 10:42:00;;;;;;;13.85;4.95;;;12.70;99.90;;;;;;4887557;29;20491;-93
2021/12/07 10:44:34;;;;;;;12.95;5.07;;;12.80;99.90;;;;;;4888106;29;20017;-93
2021/12/07 10:47:07;;;;;;;12.00;4.07;;;12.90;99.90;;;;;;4887186;29;20052;-90
2021/12/07 10:49:37;;;;;;;11.77;4.55;;;13.00;99.90;;;;;;4886171;29;20065;-91
2021/12/07 10:52:09;;;;;;;12.55;4.22;;;13.00;99.90;;;;;;4885660;29;20423;-91
2021/12/07 10:54:49;;;;;;;9.77;4.70;;;13.00;99.90;;;;;;4884229;29;20029;-92
2021/12/07 10:57:19;;;;;;;15.77;4.82;;;13.10;99.90;;;;;;4886762;29;20037;-88
2021/12/07 10:59:54;;;;;;;12.48;4.60;;;13.00;99.90;;;;;;4886356;29;20050;-91
2021/12/07 11:02:21;;;;;;;7.70;3.25;;;13.10;99.90;;;;;;4887170;29;20056;-90
2021/12/07 11:04:49;;;;;;;11.80;3.70;;;13.30;99.90;;;;;;4890615;29;20033;-89
2021/12/07 11:07:16;;;;;;;10.40;3.97;;;13.50;99.90;;;;;;4889646;29;20077;-91
2021/12/07 11:10:04;;;;;;;13.48;3.97;;;13.50;99.90;;;;;;4894282;29;20073;-90
2021/12/07 11:12:38;;;;;;;9.27;3.55;;;13.50;99.90;;;;;;4894981;29;20432;-89
2021/12/07 11:15:12;;;;;;;8.23;4.45;;;13.20;99.90;;;;;;4892188;29;20052;-90
2021/12/07 11:17:38;;;;;;;9.93;3.78;;;13.10;99.90;;;;;;4893938;29;20110;-90
2021/12/07 11:20:04;;;;;;;11.38;3.90;;;13.20;99.90;;;;;;4896542;29;20111;-92
2021/12/07 11:22:34;;;;;;;9.27;4.15;;;13.30;99.90;;;;;;4896405;29;20035;-90
2021/12/07 11:25:03;;;;;;;12.57;4.38;;;13.50;99.90;;;;;;4895446;29;20052;-91
2021/12/07 11:30:16;;;;;;;9.60;3.65;;;13.40;99.90;;;;;;4897887;29;20027;-90
2021/12/07 11:32:55;;;;;;;10.20;4.05;;;13.40;99.90;;;;;;4890835;29;20055;-92
2021/12/07 11:35:30;;;;;;;11.50;3.70;;;13.40;99.90;;;;;;4892866;29;20503;-93
2021/12/07 11:37:58;;;;;;;14.75;4.50;;;13.00;99.90;;;;;;4893722;29;20029;-92
2021/12/07 11:40:29;;;;;;;9.98;4.00;;;12.80;99.90;;;;;;4886442;29;20037;-90
2021/12/07 11:42:55;;;;;;;10.23;3.88;;;12.20;99.90;;;;;;4896513;29;20028;-91
2021/12/07 11:45:25;;;;;;;9.65;4.63;;;11.30;99.90;;;;;;4897336;29;20032;-89
2021/12/07 11:47:52;;;;;;;14.52;4.28;;;10.30;99.90;;;;;;4889289;29;20119;-90
2021/12/07 11:50:27;;;;;;;12.80;4.65;;;9.70;99.90;;;;;;4890250;29;20012;-90
2021/12/07 11:53:00;;;;;;;13.48;5.78;;;8.90;99.90;;;;;;4899292;29;20084;-89
2021/12/07 11:55:28;;;;;;;12.88;4.47;;;8.40;99.90;;;;;;4889518;29;20104;-90
2021/12/07 11:57:54;;;;;;;11.82;4.50;;;8.10;99.90;;;;;;4883522;29;20079;-90
2021/12/07 12:00:24;;;;;;;17.05;5.15;;;8.00;99.90;;;;;;4884232;29;20099;-89
2021/12/07 12:02:50;;;;;;;14.65;4.40;;;7.80;99.90;;;;;;4884443;29;20016;-89
2021/12/07 12:05:16;;;;;;;10.45;4.38;;;7.60;99.90;;;;;;4884250;29;20028;-89
2021/12/07 12:07:44;;;;;;;12.30;5.00;;;7.50;99.90;;;;;;4884777;29;20111;-89
2021/12/07 12:10:12;;;;;;;10.50;5.00;;;7.40;99.90;;;;;;4889370;29;20032;-90
2021/12/07 12:12:46;;;;;;;13.57;4.85;;;7.50;99.90;;;;;;4893458;29;20025;-87
2021/12/07 12:15:31;;;;;;;13.18;5.30;;;7.40;99.90;;;;;;4890171;29;20032;-88
2021/12/07 12:18:13;;;;;;;17.08;4.60;;;7.30;99.90;;;;;;4883572;29;20032;-91
2021/12/07 12:21:09;;;;;;;12.02;4.53;;;7.30;99.90;;;;;;4895857;29;20503;-90
2021/12/07 12:24:04;;;;;;;9.95;4.45;;;7.40;99.90;;;;;;4892818;29;20088;-87
2021/12/07 12:26:30;;;;;;;14.95;5.32;;;7.40;99.90;;;;;;4882317;29;20025;-88
2021/12/07 12:28:58;;;;;;;12.80;5.20;;;7.30;99.90;;;;;;4883392;29;20033;-86
2021/12/07 12:31:52;;;;;;;15.52;4.97;;;7.30;99.90;;;;;;4882621;29;20024;-89
2021/12/07 12:34:27;;;;;;;12.30;5.10;;;7.20;99.90;;;;;;4888277;29;20047;-89
2021/12/07 12:36:55;;;;;;;11.60;5.28;;;7.20;99.90;;;;;;4883629;29;20028;-87
2021/12/07 12:39:42;;;;;;;11.68;4.75;;;7.10;99.90;;;;;;4883685;29;20497;-88
2021/12/07 12:42:08;;;;;;;12.15;4.82;;;7.10;99.90;;;;;;4885617;29;20040;-89
2021/12/07 12:44:36;;;;;;;13.75;5.20;;;7.10;99.90;;;;;;4885951;29;20033;-88
2021/12/07 12:47:02;;;;;;;12.60;4.57;;;7.10;99.90;;;;;;4884781;29;20028;-89
2021/12/07 12:49:46;;;;;;;12.65;5.20;;;7.00;99.90;;;;;;4885059;29;20044;-88
2021/12/07 12:52:12;;;;;;;12.32;4.63;;;7.00;99.90;;;;;;4875941;29;20072;-89
2021/12/07 12:54:45;;;;;;;12.32;4.82;;;7.00;99.90;;;;;;4884884;29;20036;-89
2021/12/07 12:57:17;;;;;;;10.57;4.15;;;7.00;99.90;;;;;;4883445;29;20017;-88
2021/12/07 12:59:46;;;;;;;15.45;4.75;;;7.00;99.90;;;;;;4883500;29;20372;-87
2021/12/07 13:02:12;;;;;;;10.93;4.32;;;6.90;99.90;;;;;;4885952;29;20023;-88
2021/12/07 13:04:39;;;;;;;15.38;5.40;;;6.90;99.90;;;;;;4883215;29;20562;-86
2021/12/07 13:09:37;;;;;;;11.85;3.90;;;6.80;99.90;;;;;;4900305;29;20041;-88
2021/12/07 13:12:10;;;;;;;10.55;4.57;;;6.80;99.90;;;;;;4883783;29;20111;-87
2021/12/07 13:14:38;;;;;;;14.77;4.55;;;6.70;99.90;;;;;;4886369;29;20387;-87
2021/12/07 13:17:31;;;;;;;15.00;3.72;;;6.60;99.90;;;;;;4889958;29;20060;-88
2021/12/07 13:20:29;;;;;;;9.57;3.50;;;6.60;99.90;;;;;;4887758;29;20051;-87
2021/12/07 13:22:56;;;;;;;13.88;4.60;;;6.60;99.90;;;;;;4881541;29;20043;-88
2021/12/07 13:25:28;;;;;;;12.98;4.82;;;6.60;99.90;;;;;;4887324;29;20032;-86
2021/12/07 13:28:04;;;;;;;10.77;4.30;;;6.60;99.90;;;;;;4886855;29;20047;-88
2021/12/07 13:30:45;;;;;;;12.63;4.45;;;6.50;99.90;;;;;;4893848;29;20032;-90
2021/12/07 13:33:18;;;;;;;9.98;3.78;;;6.50;99.90;;;;;;4890294;29;20068;-87
2021/12/07 13:35:46;;;;;;;11.10;4.20;;;6.40;99.90;;;;;;4886198;29;20060;-86
2021/12/07 13:38:28;;;;;;;13.27;4.90;;;6.30;99.90;;;;;;4904166;29;20056;-89
2021/12/07 13:41:13;;;;;;;14.40;5.72;;;6.30;99.90;;;;;;4893846;29;20032;-89
2021/12/07 13:43:40;;;;;;;11.50;4.20;;;6.20;99.90;;;;;;4892638;29;20039;-87
2021/12/07 13:46:16;;;;;;;12.70;4.35;;;6.10;99.90;;;;;;4904112;29;20029;-88
2021/12/07 13:48:45;;;;;;;14.88;5.22;;;6.00;99.90;;;;;;4903719;29;20526;-88
2021/12/07 13:51:13;;;;;;;13.68;4.63;;;6.00;99.90;;;;;;4887256;29;20088;-88
2021/12/07 13:53:41;;;;;;;13.27;4.85;;;5.90;99.90;;;;;;4887930;29;20495;-89
2021/12/07 13:56:08;;;;;;;12.35;4.20;;;5.80;99.90;;;;;;4895148;29;20479;-87
2021/12/07 13:58:55;;;;;;;10.55;4.45;;;5.80;99.90;;;;;;4887609;29;20494;-89
2021/12/07 14:01:23;;;;;;;11.98;3.72;;;5.80;99.90;;;;;;4888080;29;20550;-88
2021/12/07 14:03:49;;;;;;;13.00;4.38;;;5.70;99.90;;;;;;4890100;29;20029;-88
2021/12/07 14:06:18;;;;;;;11.73;4.45;;;5.60;99.90;;;;;;4887794;29;20076;-88
2021/12/07 14:08:44;;;;;;;12.77;3.83;;;5.60;99.90;;;;;;4887852;29;20555;-89
2021/12/07 14:11:16;;;;;;;11.95;4.32;;;5.60;99.90;;;;;;4878568;29;20048;-87
2021/12/07 14:13:43;;;;;;;17.33;4.88;;;5.50;99.90;;;;;;4886053;29;20029;-89
2021/12/07 14:16:10;;;;;;;12.23;4.50;;;5.50;99.90;;;;;;4891461;29;20048;-91
2021/12/07 14:18:35;;;;;;;11.88;4.43;;;5.40;99.90;;;;;;4885219;29;20072;-87
2021/12/07 14:21:03;;;;;;;12.07;4.95;;;5.40;99.90;;;;;;4897960;29;20065;-89
2021/12/07 14:23:37;;;;;;;15.02;3.95;;;5.40;99.90;;;;;;4890657;29;20028;-88
2021/12/07 14:26:09;;;;;;;9.13;4.00;;;5.40;99.90;;;;;;4889222;29;20127;-89
2021/12/07 14:28:35;;;;;;;10.57;4.07;;;5.40;99.90;;;;;;4891696;29;20031;-89
2021/12/07 14:31:10;;;;;;;13.00;4.07;;;5.30;99.90;;;;;;4901975;29;20024;-90
2021/12/07 14:33:56;;;;;;;11.57;4.07;;;5.30;99.90;;;;;;4890289;29;20025;-88
2021/12/07 14:36:27;;;;;;;9.82;4.60;;;5.20;99.90;;;;;;4895616;29;20057;-86
2021/12/07 14:38:59;;;;;;;11.77;4.38;;;5.20;99.90;;;;;;4903117;29;20494;-88
2021/12/07 14:41:29;;;;;;;15.18;3.88;;;5.10;99.90;;;;;;4896874;29;20053;-88
2021/12/07 14:43:56;;;;;;;12.80;4.07;;;5.10;99.90;;;;;;4889107;29;20036;-87